Time;durP1;ratioP1;P1;durP2;ratioP2;P2;SDS_P1;SDS_P2;PMS_P1;PMS_P2;Temp;Humidity;BMP_temperature;BMP_pressure;BME280_temperature;BME280_humidity;BME280_pressure;Samples;Min_cycle;Max_cycle;Signal;HPM_P1;HPM_P2
2023/04/08 00:02:23;;;;;;;42.50;24.15;;;;;;;6.97;97.41;102180.09;4920914;29;20047;-73
2023/04/08 00:04:49;;;;;;;39.83;24.92;;;;;;;6.94;97.42;102168.75;4902221;29;20385;-73
2023/04/08 00:07:14;;;;;;;45.40;25.50;;;;;;;6.94;98.01;102179.19;4904662;29;20039;-73
2023/04/08 00:09:40;;;;;;;44.63;26.20;;;;;;;6.93;99.10;102182.63;4932450;28;20050;-73
2023/04/08 00:12:06;;;;;;;45.60;26.42;;;;;;;6.93;98.33;102182.63;4905716;29;20031;-73
2023/04/08 00:14:34;;;;;;;47.95;26.25;;;;;;;6.94;98.30;102183.53;4921864;29;20046;-73
2023/04/08 00:17:00;;;;;;;49.70;26.50;;;;;;;6.94;98.26;102179.19;4921427;29;20126;-73
2023/04/08 00:19:25;;;;;;;44.20;26.52;;;;;;;6.93;98.56;102180.03;4906171;29;20041;-73
2023/04/08 00:21:51;;;;;;;47.45;26.83;;;;;;;6.93;98.73;102177.41;4920682;29;20043;-73
2023/04/08 00:24:17;;;;;;;40.30;25.95;;;;;;;6.96;99.06;102180.97;4921218;29;20043;-73
2023/04/08 00:26:42;;;;;;;52.50;27.52;;;;;;;6.95;99.24;102174.84;4919682;29;20051;-73
2023/04/08 00:29:08;;;;;;;51.42;27.70;;;;;;;6.96;99.22;102175.75;4937674;29;20066;-73
2023/04/08 00:31:33;;;;;;;52.80;28.10;;;;;;;6.94;99.56;102181.78;4902661;29;20035;-73
2023/04/08 00:34:01;;;;;;;50.45;29.00;;;;;;;6.95;99.60;102177.44;4920050;29;20439;-76
2023/04/08 00:36:26;;;;;;;53.70;28.20;;;;;;;6.94;100.00;102179.19;4927019;29;20407;-76
2023/04/08 00:38:52;;;;;;;54.45;29.48;;;;;;;6.95;100.00;102185.28;4904285;29;20073;-76
2023/04/08 00:41:17;;;;;;;52.95;29.40;;;;;;;6.96;100.00;102188.78;4925142;29;20131;-76
2023/04/08 00:43:43;;;;;;;50.33;29.73;;;;;;;6.96;100.00;102186.19;4901377;29;20130;-76
2023/04/08 00:46:08;;;;;;;51.97;29.48;;;;;;;6.96;100.00;102191.38;4920021;29;20098;-76
2023/04/08 00:48:34;;;;;;;54.63;29.92;;;;;;;6.96;100.00;102186.19;4916041;29;20047;-76
2023/04/08 00:51:00;;;;;;;55.60;30.80;;;;;;;6.98;100.00;102184.47;4920542;29;20073;-76
2023/04/08 00:53:26;;;;;;;58.10;31.35;;;;;;;6.98;100.00;102193.16;4931307;29;20052;-76
2023/04/08 00:55:51;;;;;;;57.70;30.50;;;;;;;7.00;100.00;102181.06;4904962;29;20039;-76
2023/04/08 00:58:17;;;;;;;57.40;31.30;;;;;;;7.03;100.00;102188.09;4935713;29;20047;-76
2023/04/08 01:00:51;;;;;;;60.75;30.00;;;;;;;7.03;100.00;102182.88;4920860;29;20039;-75
2023/04/08 01:03:39;;;;;;;54.80;30.40;;;;;;;7.07;100.00;102189.94;4916344;29;20044;-76
2023/04/08 01:06:42;;;;;;;56.10;31.90;;;;;;;7.11;100.00;102195.25;4918137;29;20035;-76
2023/04/08 01:09:08;;;;;;;55.70;29.40;;;;;;;7.12;100.00;102188.28;4931244;29;20067;-76
2023/04/08 01:11:37;;;;;;;55.10;30.85;;;;;;;7.14;100.00;102190.94;4917953;29;20567;-76
2023/04/08 01:14:06;;;;;;;48.97;28.73;;;;;;;7.16;100.00;102194.47;4900565;29;20135;-76
2023/04/08 01:16:33;;;;;;;56.22;31.00;;;;;;;7.18;100.00;102190.16;4917655;29;20047;-76
2023/04/08 01:19:00;;;;;;;53.63;29.67;;;;;;;7.19;100.00;102190.22;4913560;29;20059;-76
2023/04/08 01:21:27;;;;;;;57.38;30.83;;;;;;;7.21;100.00;102185.94;4889500;29;20126;-76
2023/04/08 01:24:17;;;;;;;59.35;31.10;;;;;;;7.27;100.00;102193.88;4889669;29;20106;-76
2023/04/08 01:26:43;;;;;;;50.80;29.70;;;;;;;7.26;100.00;102197.31;4919762;29;20123;-76
2023/04/08 01:29:11;;;;;;;50.60;30.15;;;;;;;7.27;100.00;102199.09;4904960;29;20055;-76
2023/04/08 01:31:41;;;;;;;53.38;29.92;;;;;;;7.27;100.00;102193.00;4906879;29;20123;-76
2023/04/08 01:34:08;;;;;;;52.63;29.52;;;;;;;7.29;100.00;102196.53;4935329;29;20031;-76
2023/04/08 01:36:36;;;;;;;52.13;29.42;;;;;;;7.27;99.86;102199.09;4937154;29;20031;-76
2023/04/08 01:39:04;;;;;;;53.17;30.45;;;;;;;7.29;100.00;102201.75;4905832;29;20411;-76
2023/04/08 01:41:32;;;;;;;50.20;30.95;;;;;;;7.29;100.00;102205.22;4920583;29;20130;-76
2023/04/08 01:43:59;;;;;;;55.05;30.40;;;;;;;7.29;99.73;102202.59;4919687;29;20416;-76
2023/04/08 01:46:26;;;;;;;54.90;30.30;;;;;;;7.27;100.00;102204.31;4934805;29;20039;-73
2023/04/08 01:48:53;;;;;;;50.75;28.40;;;;;;;7.26;100.00;102207.75;4890022;29;20071;-73
2023/04/08 01:51:20;;;;;;;51.90;29.13;;;;;;;7.27;99.75;102209.53;4890833;29;20174;-73
2023/04/08 01:53:45;;;;;;;48.22;28.33;;;;;;;7.26;100.00;102212.97;4904610;29;20045;-73
2023/04/08 01:56:12;;;;;;;46.88;27.83;;;;;;;7.27;99.44;102209.53;4902304;29;20129;-73
2023/04/08 01:58:51;;;;;;;47.65;28.05;;;;;;;7.25;99.40;102205.97;4901934;29;20047;-73
2023/04/08 02:01:20;;;;;;;51.92;27.73;;;;;;;7.24;99.80;102214.69;4919767;29;20122;-73
2023/04/08 02:03:46;;;;;;;55.05;29.23;;;;;;;7.24;99.35;102213.78;4938561;29;20371;-73
2023/04/08 02:06:12;;;;;;;49.65;27.52;;;;;;;7.22;99.07;102210.25;4919121;29;20047;-73
2023/04/08 02:08:37;;;;;;;54.47;29.33;;;;;;;7.20;99.38;102212.84;4925007;29;20419;-73
2023/04/08 02:11:04;;;;;;;50.88;28.60;;;;;;;7.19;98.82;102210.19;4896071;29;20090;-73
2023/04/08 02:13:31;;;;;;;50.97;28.85;;;;;;;7.17;99.24;102210.16;4903344;29;20396;-73
2023/04/08 02:16:05;;;;;;;49.70;28.30;;;;;;;7.16;98.87;102213.59;4930873;29;20036;-73
2023/04/08 02:18:33;;;;;;;54.90;29.10;;;;;;;7.13;98.93;102213.53;4918512;29;20389;-76
2023/04/08 02:21:12;;;;;;;47.58;27.50;;;;;;;7.15;99.20;102209.22;4936775;29;20127;-76
2023/04/08 02:23:39;;;;;;;51.88;28.65;;;;;;;7.12;99.57;102211.75;4950331;29;20502;-76
2023/04/08 02:26:09;;;;;;;51.00;28.50;;;;;;;7.13;99.66;102216.13;4937598;28;20035;-73
2023/04/08 02:28:35;;;;;;;48.80;27.73;;;;;;;7.14;99.01;102214.41;4937516;29;20042;-73
2023/04/08 02:31:02;;;;;;;64.55;29.48;;;;;;;7.10;99.04;102218.66;4928575;29;20432;-73
2023/04/08 02:33:28;;;;;;;52.13;29.02;;;;;;;7.08;99.82;102217.75;4934440;29;20142;-73
2023/04/08 02:35:54;;;;;;;51.65;27.90;;;;;;;7.01;100.00;102214.13;4913551;29;20518;-73
2023/04/08 02:38:20;;;;;;;48.95;28.67;;;;;;;7.00;99.96;102214.94;4906240;29;20102;-73
2023/04/08 02:40:49;;;;;;;44.60;27.13;;;;;;;7.00;99.80;102217.56;4936654;29;20042;-73
2023/04/08 02:43:15;;;;;;;47.65;27.15;;;;;;;7.01;99.97;102215.81;4934984;29;20071;-73
2023/04/08 02:45:41;;;;;;;50.13;27.83;;;;;;;6.99;99.86;102222.72;4904987;29;20039;-73
2023/04/08 02:48:07;;;;;;;52.08;29.50;;;;;;;6.94;100.00;102214.81;4923067;29;20071;-73
2023/04/08 02:50:32;;;;;;;53.58;30.50;;;;;;;6.88;100.00;102212.91;4915714;29;20441;-73
2023/04/08 02:52:58;;;;;;;49.38;27.83;;;;;;;6.82;100.00;102215.34;4891418;29;20047;-70
2023/04/08 02:55:23;;;;;;;44.95;28.35;;;;;;;6.76;99.88;102223.03;4922478;29;20138;-71
2023/04/08 02:57:51;;;;;;;47.63;26.50;;;;;;;6.73;98.91;102225.53;4904569;29;20047;-70
2023/04/08 03:00:17;;;;;;;51.88;28.40;;;;;;;6.69;99.38;102221.97;4921828;29;20558;-71
2023/04/08 03:02:42;;;;;;;42.97;27.05;;;;;;;6.69;98.60;102228.91;4920503;29;20134;-71
2023/04/08 03:05:08;;;;;;;43.20;26.02;;;;;;;6.69;98.49;102221.09;4933673;29;20078;-71
2023/04/08 03:07:34;;;;;;;46.75;25.35;;;;;;;6.60;98.82;102226.94;4912778;29;20039;-71
2023/04/08 03:10:00;;;;;;;43.97;25.02;;;;;;;6.55;98.77;102226.81;4900552;29;20040;-70
2023/04/08 03:12:26;;;;;;;44.80;27.17;;;;;;;6.53;98.58;102220.69;4918374;29;20043;-71
2023/04/08 03:14:53;;;;;;;47.97;27.88;;;;;;;6.50;98.80;102228.41;4887639;29;20139;-70
2023/04/08 03:17:18;;;;;;;45.30;26.88;;;;;;;6.44;98.78;102217.84;4918978;29;20431;-70
2023/04/08 03:19:44;;;;;;;37.33;23.90;;;;;;;6.31;97.58;102221.81;4902559;29;20106;-70
2023/04/08 03:22:09;;;;;;;41.63;17.05;;;;;;;6.17;96.27;102216.22;4903495;29;20052;-70
2023/04/08 03:24:35;;;;;;;164.27;25.67;;;;;;;6.11;96.73;102230.78;4899417;29;20043;-73
2023/04/08 03:27:01;;;;;;;62.10;23.77;;;;;;;6.07;97.46;102222.88;4914989;29;20086;-74
2023/04/08 03:29:27;;;;;;;44.20;25.23;;;;;;;6.10;98.30;102229.88;4910698;29;20538;-73
2023/04/08 03:31:52;;;;;;;60.58;25.27;;;;;;;5.99;98.85;102218.28;4923399;29;20052;-73
2023/04/08 03:34:18;;;;;;;57.33;25.08;;;;;;;5.95;98.73;102222.50;4941855;29;20511;-74
2023/04/08 03:36:43;;;;;;;449.83;38.38;;;;;;;5.93;99.68;102223.28;4887388;29;20051;-73
2023/04/08 03:39:09;;;;;;;301.67;32.15;;;;;;;5.88;99.91;102223.16;4932403;29;20043;-73
2023/04/08 03:41:35;;;;;;;189.18;29.17;;;;;;;5.83;100.00;102230.81;4919212;29;20185;-73
2023/04/08 03:44:01;;;;;;;92.20;20.98;;;;;;;5.62;98.86;102223.25;4934801;28;20540;-70
2023/04/08 03:46:26;;;;;;;47.03;21.63;;;;;;;5.66;98.73;102234.59;4934477;29;20126;-70
2023/04/08 03:48:54;;;;;;;223.85;28.17;;;;;;;5.62;99.52;102236.25;4902597;29;20408;-70
2023/04/08 03:51:20;;;;;;;46.45;25.00;;;;;;;5.61;100.00;102231.00;4887710;29;20131;-70
2023/04/08 03:53:47;;;;;;;83.90;25.40;;;;;;;5.58;100.00;102236.09;4932895;29;20046;-70
2023/04/08 03:56:12;;;;;;;125.07;25.85;;;;;;;5.57;100.00;102239.53;4930912;29;20047;-70
2023/04/08 03:58:38;;;;;;;67.78;23.35;;;;;;;5.44;100.00;102238.25;4902975;29;20039;-70
2023/04/08 04:01:03;;;;;;;46.95;22.58;;;;;;;5.41;99.52;102239.03;4903713;29;20074;-70
2023/04/08 04:03:29;;;;;;;109.38;22.02;;;;;;;5.39;99.74;102245.94;4921501;29;20075;-70
2023/04/08 04:05:54;;;;;;;133.90;24.02;;;;;;;5.38;100.00;102241.53;4936194;29;20411;-71
2023/04/08 04:08:19;;;;;;;145.52;26.08;;;;;;;5.38;100.00;102239.81;4905595;29;20396;-70
2023/04/08 04:10:45;;;;;;;41.15;22.20;;;;;;;5.40;99.81;102252.88;4917196;29;20051;-71
2023/04/08 04:13:10;;;;;;;31.45;22.73;;;;;;;5.42;100.00;102246.03;4926259;29;20043;-71
2023/04/08 04:15:40;;;;;;;41.78;24.88;;;;;;;5.49;100.00;102247.97;4904633;29;20057;-70
2023/04/08 04:18:06;;;;;;;38.22;24.05;;;;;;;5.50;100.00;102254.94;4938639;29;20046;-70
2023/04/08 04:20:31;;;;;;;48.88;24.90;;;;;;;5.50;100.00;102252.34;4936914;29;20049;-70
2023/04/08 04:22:57;;;;;;;50.05;22.80;;;;;;;5.50;100.00;102257.56;4918624;29;20040;-70
2023/04/08 04:25:22;;;;;;;38.30;24.00;;;;;;;5.52;100.00;102258.47;4915819;29;20039;-70
2023/04/08 04:27:48;;;;;;;60.03;25.23;;;;;;;5.55;100.00;102271.56;4952689;28;20047;-71
2023/04/08 04:30:18;;;;;;;61.92;27.17;;;;;;;5.57;100.00;102265.53;4920721;29;20074;-70
2023/04/08 04:32:43;;;;;;;41.42;28.45;;;;;;;5.59;100.00;102267.34;4950298;28;20047;-70
2023/04/08 04:35:12;;;;;;;46.60;27.38;;;;;;;5.62;100.00;102279.59;5042866;23;20051;31
2023/04/08 05:04:02;;;;;;;56.00;31.27;;;;;;;5.85;100.00;102295.91;5645319;23;20029;-73
2023/04/08 05:09:19;;;;;;;57.20;31.25;;;;;;;5.90;100.00;102302.13;5324657;23;20890;-73
2023/04/08 05:37:25;;;;;;;62.55;34.33;;;;;;;6.21;100.00;102313.50;3301461;26;20052;-70
2023/04/08 05:39:50;;;;;;;66.80;34.20;;;;;;;6.26;100.00;102318.84;4918495;29;20055;-71
2023/04/08 05:42:15;;;;;;;61.75;34.25;;;;;;;6.27;100.00;102323.22;4919903;29;20042;-70
2023/04/08 05:44:42;;;;;;;64.70;31.90;;;;;;;6.30;100.00;102323.31;4917797;29;20440;-70
2023/04/08 05:47:09;;;;;;;58.53;32.88;;;;;;;6.32;100.00;102325.13;4933207;29;20039;-71
2023/04/08 05:49:34;;;;;;;62.50;32.65;;;;;;;6.36;100.00;102328.69;4920329;29;20043;-71
2023/04/08 05:52:00;;;;;;;61.25;32.38;;;;;;;6.41;100.00;102332.31;4902600;29;20074;-70
2023/04/08 05:54:25;;;;;;;61.97;32.83;;;;;;;6.46;100.00;102327.25;4904342;29;20043;-70
2023/04/08 05:56:50;;;;;;;57.80;33.40;;;;;;;6.50;100.00;102331.72;4903621;29;20047;-71
2023/04/08 05:59:16;;;;;;;59.65;32.42;;;;;;;6.54;100.00;102338.78;4935278;29;20055;-70
2023/04/08 06:01:41;;;;;;;51.78;30.13;;;;;;;6.58;100.00;102333.69;4900382;29;20048;-70
2023/04/08 06:04:07;;;;;;;54.10;31.65;;;;;;;6.62;100.00;102337.25;4920370;29;20036;-70
2023/04/08 06:06:32;;;;;;;49.85;30.20;;;;;;;6.66;100.00;102338.25;4921262;29;20611;-70
2023/04/08 06:08:57;;;;;;;55.65;30.88;;;;;;;6.71;100.00;102352.25;4917929;29;20053;-70
2023/04/08 06:11:23;;;;;;;49.53;29.38;;;;;;;6.70;100.00;102347.91;4904564;29;20043;-71
2023/04/08 06:13:48;;;;;;;49.13;29.83;;;;;;;6.70;100.00;102353.13;4908003;29;20119;-70
2023/04/08 06:16:16;;;;;;;49.85;28.65;;;;;;;6.67;100.00;102360.84;4921380;29;20158;-71
2023/04/08 06:18:41;;;;;;;48.35;29.70;;;;;;;6.66;100.00;102354.75;4952443;29;20432;-70
2023/04/08 06:21:09;;;;;;;45.72;28.80;;;;;;;6.69;100.00;102353.94;4932148;29;20098;-71
2023/04/08 06:23:34;;;;;;;48.42;29.20;;;;;;;6.72;100.00;102356.63;4921690;29;20043;-71
2023/04/08 06:26:00;;;;;;;50.83;28.73;;;;;;;6.69;100.00;102354.81;4904249;29;20036;-72
2023/04/08 06:28:25;;;;;;;46.92;29.42;;;;;;;6.74;100.00;102362.78;4911147;29;20043;-72
2023/04/08 06:30:51;;;;;;;53.85;31.52;;;;;;;6.73;100.00;102361.03;4921244;29;20106;-71
2023/04/08 06:33:16;;;;;;;47.45;31.00;;;;;;;6.72;100.00;102365.34;4919660;29;20050;-72
2023/04/08 06:35:42;;;;;;;44.55;29.00;;;;;;;6.72;100.00;102364.44;4906708;29;20102;-75
2023/04/08 06:38:07;;;;;;;45.38;28.17;;;;;;;6.73;99.86;102367.09;4921684;29;20098;-75
2023/04/08 06:40:32;;;;;;;47.00;29.40;;;;;;;6.76;100.00;102374.13;4922329;29;20054;-71
2023/04/08 06:42:58;;;;;;;50.70;30.27;;;;;;;6.77;100.00;102378.50;4907356;29;20102;-72
2023/04/08 06:45:23;;;;;;;47.10;28.80;;;;;;;6.75;100.00;102378.47;4922249;29;20051;-71
2023/04/08 06:47:49;;;;;;;52.38;30.40;;;;;;;6.79;100.00;102381.16;4921810;29;20040;-71
2023/04/08 06:50:15;;;;;;;52.83;31.45;;;;;;;6.76;100.00;102385.41;4906814;29;20433;-71
2023/04/08 06:52:40;;;;;;;49.70;29.58;;;;;;;6.77;100.00;102378.50;4922383;29;20513;-71
2023/04/08 06:55:06;;;;;;;50.08;29.88;;;;;;;6.73;100.00;102387.94;4919122;29;20102;-72
2023/04/08 06:57:31;;;;;;;48.80;31.60;;;;;;;6.78;100.00;102390.72;4916607;29;20087;-71
2023/04/08 06:59:59;;;;;;;50.15;30.30;;;;;;;6.78;100.00;102390.72;4921020;28;20043;-72
2023/04/08 07:02:24;;;;;;;50.78;30.98;;;;;;;6.75;100.00;102388.88;4904996;29;20050;-71
2023/04/08 07:04:50;;;;;;;50.67;30.08;;;;;;;6.79;100.00;102404.59;4921184;29;20043;-71
2023/04/08 07:07:15;;;;;;;48.67;30.48;;;;;;;6.81;100.00;102401.22;4921790;29;20135;-71
2023/04/08 07:09:44;;;;;;;54.25;32.53;;;;;;;6.84;100.00;102406.50;4921676;29;20050;-72
2023/04/08 07:12:10;;;;;;;55.58;34.03;;;;;;;6.82;100.00;102413.38;4920736;29;20035;-71
2023/04/08 07:14:35;;;;;;;48.15;30.60;;;;;;;6.80;100.00;102409.00;4922068;29;20050;-72
2023/04/08 07:17:01;;;;;;;50.53;30.70;;;;;;;6.86;100.00;102411.75;4921925;29;20256;-71
2023/04/08 07:19:26;;;;;;;51.88;31.98;;;;;;;6.87;99.94;102411.81;4922207;29;20047;-72
2023/04/08 07:21:51;;;;;;;52.72;32.63;;;;;;;6.93;100.00;102417.19;4904280;29;20043;-72
2023/04/08 07:24:17;;;;;;;54.63;31.77;;;;;;;6.99;99.79;102421.69;4920546;29;20047;-72
2023/04/08 07:26:43;;;;;;;52.33;30.92;;;;;;;7.00;100.00;102422.59;4902863;29;20411;-72
2023/04/08 07:29:09;;;;;;;58.47;33.20;;;;;;;7.01;100.00;102434.75;4918472;29;20084;-71
2023/04/08 07:31:34;;;;;;;56.08;32.55;;;;;;;7.02;100.00;102436.53;4922519;29;20046;-71
2023/04/08 07:34:00;;;;;;;54.28;32.25;;;;;;;7.00;100.00;102438.22;4931726;29;20501;-75
2023/04/08 07:36:25;;;;;;;56.20;32.80;;;;;;;6.99;100.00;102442.53;4933959;29;20408;-75
2023/04/08 07:38:51;;;;;;;52.78;31.15;;;;;;;6.93;100.00;102430.22;4905734;29;20209;-74
2023/04/08 07:41:16;;;;;;;55.25;32.70;;;;;;;6.94;100.00;102445.03;4908246;29;20142;-74
2023/04/08 07:43:42;;;;;;;52.40;31.02;;;;;;;6.95;100.00;102443.28;4903116;29;20098;-74
2023/04/08 07:46:09;;;;;;;52.55;31.80;;;;;;;6.97;100.00;102438.13;4905490;29;20458;-75
2023/04/08 07:48:35;;;;;;;54.38;31.95;;;;;;;6.93;100.00;102443.25;4921336;29;20062;-74
2023/04/08 07:51:05;;;;;;;57.20;31.30;;;;;;;6.97;100.00;102445.94;4937862;29;20423;-75
2023/04/08 07:53:30;;;;;;;47.97;29.25;;;;;;;6.98;100.00;102447.72;4938235;29;20042;-76
2023/04/08 07:55:56;;;;;;;48.28;29.13;;;;;;;6.99;100.00;102459.91;4934422;29;20044;-75
2023/04/08 07:58:22;;;;;;;46.25;28.10;;;;;;;7.02;99.93;102449.56;4918793;29;20416;-75
2023/04/08 08:00:48;;;;;;;47.08;28.63;;;;;;;7.06;99.64;102460.13;4902472;29;20106;-75
2023/04/08 08:03:13;;;;;;;45.58;28.60;;;;;;;7.08;100.00;102452.34;4903039;29;20044;-75
2023/04/08 08:05:39;;;;;;;49.92;29.85;;;;;;;7.08;100.00;102458.47;4919328;29;20040;-75
2023/04/08 08:08:06;;;;;;;45.67;27.80;;;;;;;7.10;100.00;102455.91;4906467;29;20039;-75
2023/04/08 08:10:32;;;;;;;47.13;29.08;;;;;;;7.10;99.57;102458.50;4906409;29;20043;-75
2023/04/08 08:12:57;;;;;;;45.28;28.17;;;;;;;7.04;99.36;102458.31;4937549;29;20424;-75
2023/04/08 08:15:23;;;;;;;47.90;29.33;;;;;;;7.05;99.43;102462.69;4905675;29;20407;-75
2023/04/08 08:17:48;;;;;;;45.05;28.45;;;;;;;7.00;99.10;102465.16;4921135;29;20075;-75
2023/04/08 08:20:16;;;;;;;41.63;28.02;;;;;;;7.02;99.16;102463.47;4887128;29;20040;-75
2023/04/08 08:22:41;;;;;;;43.42;27.92;;;;;;;7.12;100.00;102464.63;4934313;29;20150;-75
2023/04/08 08:25:08;;;;;;;41.88;27.27;;;;;;;7.18;99.86;102464.78;4886964;29;20040;-75
2023/04/08 08:27:34;;;;;;;41.35;26.75;;;;;;;7.22;99.62;102471.88;4887131;29;20046;-75
2023/04/08 08:29:59;;;;;;;39.05;25.92;;;;;;;7.24;98.91;102467.59;4918548;29;20047;-75
2023/04/08 08:32:25;;;;;;;39.45;25.90;;;;;;;7.20;98.52;102473.56;4890549;29;20488;-75
2023/04/08 08:34:50;;;;;;;45.65;27.67;;;;;;;7.22;99.08;102477.09;4934682;29;20050;-75
2023/04/08 08:37:16;;;;;;;47.08;26.77;;;;;;;7.19;99.04;102482.22;4917922;29;20146;-75
2023/04/08 08:39:41;;;;;;;43.10;26.38;;;;;;;7.24;99.28;102484.94;4920776;29;20047;-75
2023/04/08 08:42:17;;;;;;;43.28;26.80;;;;;;;7.27;99.75;102488.53;4904598;29;20066;-75
2023/04/08 08:44:43;;;;;;;38.08;26.45;;;;;;;7.24;99.24;102491.06;4934656;29;20125;-75
2023/04/08 08:47:09;;;;;;;39.28;25.85;;;;;;;7.20;99.63;102489.19;4934451;29;20120;-75
2023/04/08 08:49:34;;;;;;;38.40;26.65;;;;;;;7.23;99.22;102499.72;4917481;29;20447;-75
2023/04/08 08:52:00;;;;;;;36.50;24.83;;;;;;;7.24;99.46;102496.28;4902916;29;20058;-75
2023/04/08 08:54:26;;;;;;;41.92;25.95;;;;;;;7.25;99.13;102494.53;4905598;29;20042;-75
2023/04/08 08:56:51;;;;;;;35.47;24.73;;;;;;;7.22;98.85;102502.28;4886885;29;20035;-75
2023/04/08 08:59:17;;;;;;;37.95;26.10;;;;;;;7.18;98.76;102505.63;4929978;29;20057;-75
2023/04/08 09:01:42;;;;;;;37.10;25.33;;;;;;;7.17;98.74;102503.84;4942608;29;20487;-75
2023/04/08 09:04:19;;;;;;;36.97;26.35;;;;;;;7.22;100.00;102503.16;4936933;29;20039;-75
2023/04/08 09:07:08;;;;;;;35.50;25.23;;;;;;;7.28;99.68;102507.66;4920806;29;20403;-75
2023/04/08 09:09:50;;;;;;;40.38;27.15;;;;;;;7.32;99.56;102501.69;4936883;29;20054;-75
2023/04/08 09:12:16;;;;;;;35.33;25.83;;;;;;;7.29;98.50;102507.72;4930945;29;20041;-75
2023/04/08 09:14:42;;;;;;;34.17;25.23;;;;;;;7.29;98.73;102509.44;4935188;29;20047;-75
2023/04/08 09:17:07;;;;;;;33.47;25.65;;;;;;;7.24;97.96;102506.72;4920626;29;20091;-75
2023/04/08 09:19:33;;;;;;;36.05;27.00;;;;;;;7.32;99.10;102503.44;4938387;28;20514;-75
2023/04/08 09:22:06;;;;;;;35.83;26.92;;;;;;;7.27;98.37;102505.91;4903822;29;20050;-72
2023/04/08 09:24:32;;;;;;;35.78;27.60;;;;;;;7.39;99.43;102510.59;4934575;28;20159;-72
2023/04/08 09:26:58;;;;;;;34.97;27.02;;;;;;;7.45;98.88;102516.84;4952764;28;20138;-72
2023/04/08 09:29:25;;;;;;;35.38;27.83;;;;;;;7.46;98.02;102523.84;4918764;29;20066;-72
2023/04/08 09:31:58;;;;;;;34.03;25.95;;;;;;;7.59;98.16;102514.63;4917885;28;20039;-72
2023/04/08 09:34:26;;;;;;;36.00;27.85;;;;;;;7.83;98.89;102521.38;4950264;28;20031;-72
2023/04/08 09:36:52;;;;;;;35.25;27.17;;;;;;;7.91;98.16;102525.03;4934222;28;20094;-72
2023/04/08 09:39:18;;;;;;;36.40;27.42;;;;;;;8.09;97.74;102531.59;4942600;28;20046;-72
2023/04/08 09:41:47;;;;;;;34.58;25.88;;;;;;;8.16;97.13;102523.09;4944887;28;20063;-72
2023/04/08 09:44:15;;;;;;;34.97;27.73;;;;;;;8.22;96.12;102530.19;4940058;28;20039;-72
2023/04/08 09:46:50;;;;;;;35.47;26.88;;;;;;;8.26;95.75;102534.63;4911552;29;20051;-72
2023/04/08 09:49:32;;;;;;;33.55;26.50;;;;;;;8.24;94.78;102541.56;4946456;28;20039;-72
2023/04/08 09:52:10;;;;;;;36.05;26.60;;;;;;;8.30;93.95;102542.59;4950768;28;20034;-72
2023/04/08 09:54:46;;;;;;;30.30;24.77;;;;;;;8.29;93.71;102546.03;4952135;28;20039;-72
2023/04/08 09:57:35;;;;;;;32.78;25.98;;;;;;;8.32;93.57;102542.63;4948524;28;20073;-72
2023/04/08 10:00:23;;;;;;;32.38;26.15;;;;;;;8.47;95.09;102540.41;4943838;28;20583;-72
2023/04/08 10:03:05;;;;;;;31.25;25.27;;;;;;;8.50;92.88;102542.22;4961194;28;20051;-72
2023/04/08 10:05:32;;;;;;;29.10;24.75;;;;;;;8.48;91.54;102538.69;4944803;29;20059;-72
2023/04/08 10:07:57;;;;;;;30.42;25.83;;;;;;;8.57;91.60;102536.28;4938251;29;20043;-75
2023/04/08 10:10:25;;;;;;;32.95;26.13;;;;;;;8.78;92.18;102537.66;4917646;29;20095;-75
2023/04/08 10:12:50;;;;;;;30.67;25.83;;;;;;;8.86;91.19;102532.59;4939345;29;20077;-76
2023/04/08 10:15:25;;;;;;;31.52;26.15;;;;;;;9.14;92.51;102532.34;4926804;29;20164;-75
2023/04/08 10:18:17;;;;;;;31.83;25.92;;;;;;;9.34;92.67;102537.13;4938773;29;20043;-75
2023/04/08 10:20:47;;;;;;;28.83;24.70;;;;;;;9.51;90.11;102538.34;4925284;28;20144;-75
2023/04/08 10:23:15;;;;;;;35.55;28.75;;;;;;;9.99;91.68;102533.13;4948491;28;20558;-75
2023/04/08 10:25:47;;;;;;;33.00;27.70;;;;;;;10.20;88.62;102529.97;4946530;29;20090;-75
2023/04/08 10:28:18;;;;;;;32.40;25.40;;;;;;;10.47;88.77;102528.69;4940027;28;20436;-75
2023/04/08 10:30:45;;;;;;;27.35;23.25;;;;;;;10.54;85.90;102517.44;4951791;29;20131;-76
2023/04/08 10:33:14;;;;;;;30.25;24.63;;;;;;;10.84;86.72;102517.00;4937925;28;20035;-76
2023/04/08 10:35:45;;;;;;;29.08;24.92;;;;;;;11.09;86.19;102513.00;4945819;29;20039;-75
2023/04/08 10:38:12;;;;;;;26.83;23.83;;;;;;;11.12;83.16;102509.53;4939852;28;20400;-75
2023/04/08 10:40:41;;;;;;;28.23;22.73;;;;;;;11.08;79.06;102511.22;4940584;28;20035;-75
2023/04/08 10:43:08;;;;;;;26.23;23.20;;;;;;;10.91;78.01;102505.75;4954895;28;20436;-75
2023/04/08 10:45:34;;;;;;;29.17;24.58;;;;;;;11.31;83.24;102507.13;4907631;29;20396;-75
2023/04/08 10:48:23;;;;;;;28.77;25.48;;;;;;;11.86;85.10;102506.84;4942553;29;20042;-75
2023/04/08 10:50:56;;;;;;;29.27;25.40;;;;;;;12.24;82.29;102501.94;4931406;28;20035;-75
2023/04/08 10:53:35;;;;;;;29.67;26.40;;;;;;;12.57;80.52;102504.78;4948420;28;20043;-75
2023/04/08 10:56:07;;;;;;;28.83;24.60;;;;;;;12.49;75.05;102494.22;4933682;29;20062;-75
2023/04/08 10:58:46;;;;;;;24.95;22.25;;;;;;;12.67;75.96;102504.00;4918257;29;20559;-75
2023/04/08 11:01:12;;;;;;;28.08;24.92;;;;;;;12.78;74.13;102506.69;4937956;29;20396;-75
2023/04/08 11:03:37;;;;;;;29.85;26.42;;;;;;;12.80;74.52;102507.56;4944516;29;20045;-75
2023/04/08 11:06:03;;;;;;;28.98;25.95;;;;;;;12.96;75.49;102504.16;4938376;28;20034;-75
2023/04/08 11:08:33;;;;;;;26.50;23.60;;;;;;;13.13;74.44;102505.97;4956339;28;20074;-75
2023/04/08 11:11:03;;;;;;;26.02;23.23;;;;;;;13.08;70.90;102510.34;4946005;28;20454;-75
2023/04/08 11:13:29;;;;;;;25.15;22.40;;;;;;;13.23;72.16;102512.16;4911491;29;20484;-75
2023/04/08 11:15:57;;;;;;;26.27;23.55;;;;;;;13.59;72.47;102511.44;4923508;29;20113;-75
2023/04/08 11:18:23;;;;;;;24.00;21.45;;;;;;;13.62;71.29;102514.09;4931377;29;20107;-75
2023/04/08 11:20:52;;;;;;;25.65;22.92;;;;;;;13.99;70.99;102513.25;4921132;29;20042;-74
2023/04/08 11:23:18;;;;;;;25.92;23.15;;;;;;;13.98;69.87;102507.09;4942755;29;20039;-75
2023/04/08 11:25:48;;;;;;;25.63;22.88;;;;;;;13.95;68.49;102517.66;4933388;29;20094;-75
2023/04/08 11:28:14;;;;;;;24.38;21.67;;;;;;;14.01;66.10;102511.50;4944638;29;20105;-75
2023/04/08 11:30:40;;;;;;;24.58;21.85;;;;;;;13.97;67.57;102510.59;4905683;29;20035;-73
2023/04/08 11:33:07;;;;;;;26.95;24.13;;;;;;;14.38;70.80;102503.59;4946310;28;20062;-72
2023/04/08 11:35:33;;;;;;;26.05;22.13;;;;;;;14.36;66.01;102503.56;4945805;29;20069;-72
2023/04/08 11:37:58;;;;;;;25.05;22.35;;;;;;;14.55;66.61;102498.28;4952892;28;20494;-73
2023/04/08 11:40:25;;;;;;;25.38;22.67;;;;;;;14.68;68.71;102505.34;4939385;28;20047;-72
2023/04/08 11:42:51;;;;;;;24.48;21.95;;;;;;;14.70;65.40;102498.28;4933633;28;20373;-73
2023/04/08 11:45:20;;;;;;;25.90;23.20;;;;;;;14.59;66.23;102493.88;4913609;28;20047;-72
2023/04/08 11:47:46;;;;;;;25.05;22.10;;;;;;;14.77;66.68;102487.69;4923627;28;20475;-72
2023/04/08 11:50:12;;;;;;;24.52;22.02;;;;;;;14.77;65.01;102488.59;4953833;29;20042;-72
2023/04/08 11:52:44;;;;;;;22.98;20.60;;;;;;;14.54;63.98;102491.25;4922163;28;20106;-72
2023/04/08 11:55:29;;;;;;;22.77;20.58;;;;;;;14.50;63.83;102494.78;4933690;29;20039;-73
2023/04/08 11:57:58;;;;;;;25.13;22.58;;;;;;;14.54;62.93;102492.13;4926682;29;20119;-73
2023/04/08 12:00:24;;;;;;;24.42;21.60;;;;;;;14.40;62.83;102488.63;4953532;28;20042;-72
2023/04/08 12:02:51;;;;;;;23.85;21.40;;;;;;;14.62;64.38;102494.78;4912436;28;20039;-73
2023/04/08 12:05:17;;;;;;;23.58;21.10;;;;;;;14.61;64.58;102486.81;4914278;28;20133;-72
2023/04/08 12:07:43;;;;;;;24.10;21.60;;;;;;;14.52;62.55;102487.72;4950301;28;20154;-72
2023/04/08 12:10:12;;;;;;;23.92;21.45;;;;;;;14.72;61.77;102499.16;4926330;28;20122;-75